sensor_id;sensor_type;location;lat;lon;timestamp;P1;durP1;ratioP1;P2;durP2;ratioP2
69981;SDS011;57319;56.274;43.980;2023-02-28T00:02:19;12.40;;;4.50;;
69981;SDS011;57319;56.274;43.980;2023-02-28T00:04:45;9.90;;;5.35;;
69981;SDS011;57319;56.274;43.980;2023-02-28T00:07:18;6.10;;;4.57;;
69981;SDS011;57319;56.274;43.980;2023-02-28T00:09:44;7.55;;;3.92;;
69981;SDS011;57319;56.274;43.980;2023-02-28T00:12:09;3.10;;;2.90;;
69981;SDS011;57319;56.274;43.980;2023-02-28T00:14:38;5.30;;;3.55;;
69981;SDS011;57319;56.274;43.980;2023-02-28T00:17:03;5.78;;;4.25;;
69981;SDS011;57319;56.274;43.980;2023-02-28T00:19:29;6.18;;;4.18;;
69981;SDS011;57319;56.274;43.980;2023-02-28T00:21:54;6.00;;;4.60;;
69981;SDS011;57319;56.274;43.980;2023-02-28T00:24:20;4.85;;;3.95;;
69981;SDS011;57319;56.274;43.980;2023-02-28T00:26:46;3.78;;;3.38;;
69981;SDS011;57319;56.274;43.980;2023-02-28T00:29:11;9.23;;;4.95;;
69981;SDS011;57319;56.274;43.980;2023-02-28T00:31:37;5.18;;;3.88;;
69981;SDS011;57319;56.274;43.980;2023-02-28T00:34:02;5.78;;;4.72;;
69981;SDS011;57319;56.274;43.980;2023-02-28T00:36:28;10.45;;;4.80;;
69981;SDS011;57319;56.274;43.980;2023-02-28T00:38:53;6.93;;;4.18;;
69981;SDS011;57319;56.274;43.980;2023-02-28T00:41:19;5.75;;;4.53;;
69981;SDS011;57319;56.274;43.980;2023-02-28T00:43:45;6.65;;;3.88;;
69981;SDS011;57319;56.274;43.980;2023-02-28T00:46:10;6.57;;;4.70;;
69981;SDS011;57319;56.274;43.980;2023-02-28T00:48:36;9.77;;;4.43;;
69981;SDS011;57319;56.274;43.980;2023-02-28T00:51:02;10.35;;;4.72;;
69981;SDS011;57319;56.274;43.980;2023-02-28T00:53:28;5.65;;;4.30;;
69981;SDS011;57319;56.274;43.980;2023-02-28T00:55:54;10.13;;;5.32;;
69981;SDS011;57319;56.274;43.980;2023-02-28T00:58:19;11.23;;;6.32;;
69981;SDS011;57319;56.274;43.980;2023-02-28T01:00:45;15.35;;;6.82;;
69981;SDS011;57319;56.274;43.980;2023-02-28T01:03:17;14.07;;;6.82;;
69981;SDS011;57319;56.274;43.980;2023-02-28T01:05:44;11.13;;;6.30;;
69981;SDS011;57319;56.274;43.980;2023-02-28T01:08:10;17.67;;;7.63;;
69981;SDS011;57319;56.274;43.980;2023-02-28T01:10:36;13.65;;;6.28;;
69981;SDS011;57319;56.274;43.980;2023-02-28T01:13:02;10.93;;;4.90;;
69981;SDS011;57319;56.274;43.980;2023-02-28T01:15:28;9.57;;;5.57;;
69981;SDS011;57319;56.274;43.980;2023-02-28T01:17:53;8.13;;;5.72;;
69981;SDS011;57319;56.274;43.980;2023-02-28T01:20:19;11.75;;;5.82;;
69981;SDS011;57319;56.274;43.980;2023-02-28T01:22:45;8.82;;;5.63;;
69981;SDS011;57319;56.274;43.980;2023-02-28T01:25:11;11.35;;;5.55;;
69981;SDS011;57319;56.274;43.980;2023-02-28T01:27:37;7.55;;;5.53;;
69981;SDS011;57319;56.274;43.980;2023-02-28T01:30:05;9.02;;;5.57;;
69981;SDS011;57319;56.274;43.980;2023-02-28T01:32:31;7.88;;;5.32;;
69981;SDS011;57319;56.274;43.980;2023-02-28T01:34:57;4.22;;;3.75;;
69981;SDS011;57319;56.274;43.980;2023-02-28T01:37:23;8.63;;;4.85;;
69981;SDS011;57319;56.274;43.980;2023-02-28T01:39:49;8.65;;;5.07;;
69981;SDS011;57319;56.274;43.980;2023-02-28T01:42:14;7.30;;;4.85;;
69981;SDS011;57319;56.274;43.980;2023-02-28T01:47:44;6.97;;;4.38;;
69981;SDS011;57319;56.274;43.980;2023-02-28T01:50:20;6.05;;;3.85;;
69981;SDS011;57319;56.274;43.980;2023-02-28T01:52:52;5.88;;;3.65;;
69981;SDS011;57319;56.274;43.980;2023-02-28T01:55:24;4.70;;;4.30;;
69981;SDS011;57319;56.274;43.980;2023-02-28T01:57:55;5.22;;;4.45;;
69981;SDS011;57319;56.274;43.980;2023-02-28T02:00:25;6.72;;;4.35;;
69981;SDS011;57319;56.274;43.980;2023-02-28T02:02:53;10.45;;;4.63;;
69981;SDS011;57319;56.274;43.980;2023-02-28T02:05:23;8.60;;;4.35;;
69981;SDS011;57319;56.274;43.980;2023-02-28T02:07:57;11.63;;;4.93;;
69981;SDS011;57319;56.274;43.980;2023-02-28T02:18:47;4.78;;;3.78;;
69981;SDS011;57319;56.274;43.980;2023-02-28T02:26:55;12.55;;;4.43;;
69981;SDS011;57319;56.274;43.980;2023-02-28T02:42:27;8.82;;;4.85;;
69981;SDS011;57319;56.274;43.980;2023-02-28T02:45:15;8.68;;;4.97;;
69981;SDS011;57319;56.274;43.980;2023-02-28T02:47:46;14.40;;;4.38;;
69981;SDS011;57319;56.274;43.980;2023-02-28T02:50:19;7.15;;;4.07;;
69981;SDS011;57319;56.274;43.980;2023-02-28T02:52:51;9.90;;;4.55;;
69981;SDS011;57319;56.274;43.980;2023-02-28T02:55:21;4.35;;;3.38;;
69981;SDS011;57319;56.274;43.980;2023-02-28T02:57:55;6.13;;;3.42;;
69981;SDS011;57319;56.274;43.980;2023-02-28T03:00:28;6.25;;;4.05;;
69981;SDS011;57319;56.274;43.980;2023-02-28T03:02:58;4.10;;;3.55;;
69981;SDS011;57319;56.274;43.980;2023-02-28T03:05:27;5.82;;;3.67;;
69981;SDS011;57319;56.274;43.980;2023-02-28T03:08:13;3.58;;;3.25;;
69981;SDS011;57319;56.274;43.980;2023-02-28T03:10:41;6.65;;;4.30;;
69981;SDS011;57319;56.274;43.980;2023-02-28T03:13:12;5.75;;;3.53;;
69981;SDS011;57319;56.274;43.980;2023-02-28T03:21:34;4.22;;;3.80;;
69981;SDS011;57319;56.274;43.980;2023-02-28T03:26:45;6.03;;;3.83;;
69981;SDS011;57319;56.274;43.980;2023-02-28T03:29:20;11.45;;;2.95;;
69981;SDS011;57319;56.274;43.980;2023-02-28T03:31:54;5.50;;;3.90;;
69981;SDS011;57319;56.274;43.980;2023-02-28T03:37:07;3.00;;;2.70;;
69981;SDS011;57319;56.274;43.980;2023-02-28T03:39:38;3.75;;;3.45;;
69981;SDS011;57319;56.274;43.980;2023-02-28T03:42:09;4.20;;;3.80;;
69981;SDS011;57319;56.274;43.980;2023-02-28T03:44:43;10.27;;;4.88;;
69981;SDS011;57319;56.274;43.980;2023-02-28T03:47:15;5.95;;;3.63;;
69981;SDS011;57319;56.274;43.980;2023-02-28T03:52:34;5.57;;;3.22;;
69981;SDS011;57319;56.274;43.980;2023-02-28T03:55:04;5.82;;;2.97;;
69981;SDS011;57319;56.274;43.980;2023-02-28T04:02:33;3.60;;;3.30;;
69981;SDS011;57319;56.274;43.980;2023-02-28T04:04:59;17.15;;;3.25;;
69981;SDS011;57319;56.274;43.980;2023-02-28T04:07:28;13.18;;;3.58;;
69981;SDS011;57319;56.274;43.980;2023-02-28T04:10:02;3.22;;;2.97;;
69981;SDS011;57319;56.274;43.980;2023-02-28T04:12:29;3.78;;;3.38;;
69981;SDS011;57319;56.274;43.980;2023-02-28T04:14:54;2.25;;;1.80;;
69981;SDS011;57319;56.274;43.980;2023-02-28T04:17:20;4.88;;;3.03;;
69981;SDS011;57319;56.274;43.980;2023-02-28T04:19:46;9.35;;;3.83;;
69981;SDS011;57319;56.274;43.980;2023-02-28T04:22:11;7.55;;;3.70;;
69981;SDS011;57319;56.274;43.980;2023-02-28T04:24:37;3.78;;;3.08;;
69981;SDS011;57319;56.274;43.980;2023-02-28T04:27:06;11.23;;;3.70;;
69981;SDS011;57319;56.274;43.980;2023-02-28T04:29:33;3.15;;;2.88;;
69981;SDS011;57319;56.274;43.980;2023-02-28T04:31:59;4.05;;;3.25;;
69981;SDS011;57319;56.274;43.980;2023-02-28T04:34:26;21.95;;;3.75;;
69981;SDS011;57319;56.274;43.980;2023-02-28T04:36:53;3.85;;;3.53;;
69981;SDS011;57319;56.274;43.980;2023-02-28T04:39:20;5.20;;;3.65;;
69981;SDS011;57319;56.274;43.980;2023-02-28T04:41:47;3.25;;;3.05;;
69981;SDS011;57319;56.274;43.980;2023-02-28T04:44:13;6.20;;;4.30;;
69981;SDS011;57319;56.274;43.980;2023-02-28T04:46:39;11.15;;;3.58;;
69981;SDS011;57319;56.274;43.980;2023-02-28T04:49:05;7.68;;;3.67;;
69981;SDS011;57319;56.274;43.980;2023-02-28T04:51:31;5.97;;;3.40;;
69981;SDS011;57319;56.274;43.980;2023-02-28T04:53:57;7.75;;;4.05;;
69981;SDS011;57319;56.274;43.980;2023-02-28T04:56:23;4.97;;;3.70;;
69981;SDS011;57319;56.274;43.980;2023-02-28T04:58:49;13.52;;;4.13;;
69981;SDS011;57319;56.274;43.980;2023-02-28T05:01:32;3.65;;;3.40;;
69981;SDS011;57319;56.274;43.980;2023-02-28T05:04:00;5.97;;;4.00;;
69981;SDS011;57319;56.274;43.980;2023-02-28T05:06:28;11.30;;;3.60;;
69981;SDS011;57319;56.274;43.980;2023-02-28T05:08:55;6.93;;;4.60;;
69981;SDS011;57319;56.274;43.980;2023-02-28T05:11:23;4.80;;;3.88;;
69981;SDS011;57319;56.274;43.980;2023-02-28T05:13:50;5.15;;;3.28;;
69981;SDS011;57319;56.274;43.980;2023-02-28T05:16:17;5.22;;;3.15;;
69981;SDS011;57319;56.274;43.980;2023-02-28T05:18:44;4.85;;;2.97;;
69981;SDS011;57319;56.274;43.980;2023-02-28T05:23:51;5.50;;;3.10;;
69981;SDS011;57319;56.274;43.980;2023-02-28T05:26:17;3.72;;;2.83;;
69981;SDS011;57319;56.274;43.980;2023-02-28T05:28:43;3.00;;;2.80;;
69981;SDS011;57319;56.274;43.980;2023-02-28T05:31:11;5.38;;;3.95;;
69981;SDS011;57319;56.274;43.980;2023-02-28T05:33:37;4.00;;;3.33;;
69981;SDS011;57319;56.274;43.980;2023-02-28T05:36:04;4.22;;;2.67;;
69981;SDS011;57319;56.274;43.980;2023-02-28T05:38:31;3.28;;;2.97;;
69981;SDS011;57319;56.274;43.980;2023-02-28T05:40:56;4.38;;;2.85;;
69981;SDS011;57319;56.274;43.980;2023-02-28T05:43:22;4.53;;;3.17;;
69981;SDS011;57319;56.274;43.980;2023-02-28T05:45:48;3.88;;;3.40;;
69981;SDS011;57319;56.274;43.980;2023-02-28T05:48:14;3.85;;;3.17;;
69981;SDS011;57319;56.274;43.980;2023-02-28T05:50:39;5.88;;;3.60;;
69981;SDS011;57319;56.274;43.980;2023-02-28T05:53:05;3.60;;;3.13;;
69981;SDS011;57319;56.274;43.980;2023-02-28T05:55:31;6.55;;;2.95;;
69981;SDS011;57319;56.274;43.980;2023-02-28T05:57:56;4.97;;;3.47;;
69981;SDS011;57319;56.274;43.980;2023-02-28T06:00:22;3.97;;;3.58;;
69981;SDS011;57319;56.274;43.980;2023-02-28T06:02:48;6.97;;;3.63;;
69981;SDS011;57319;56.274;43.980;2023-02-28T06:05:15;2.95;;;2.75;;
69981;SDS011;57319;56.274;43.980;2023-02-28T06:07:42;4.30;;;3.72;;
69981;SDS011;57319;56.274;43.980;2023-02-28T06:10:11;3.47;;;2.92;;
69981;SDS011;57319;56.274;43.980;2023-02-28T06:12:38;5.53;;;3.20;;
69981;SDS011;57319;56.274;43.980;2023-02-28T06:15:04;5.13;;;3.58;;
69981;SDS011;57319;56.274;43.980;2023-02-28T06:17:30;4.63;;;3.17;;
69981;SDS011;57319;56.274;43.980;2023-02-28T06:19:56;4.53;;;3.08;;
69981;SDS011;57319;56.274;43.980;2023-02-28T06:22:21;5.78;;;3.65;;
69981;SDS011;57319;56.274;43.980;2023-02-28T06:24:47;4.75;;;3.78;;
69981;SDS011;57319;56.274;43.980;2023-02-28T06:27:13;9.82;;;3.42;;
69981;SDS011;57319;56.274;43.980;2023-02-28T06:29:38;4.97;;;3.88;;
69981;SDS011;57319;56.274;43.980;2023-02-28T06:32:07;8.57;;;3.58;;
69981;SDS011;57319;56.274;43.980;2023-02-28T06:34:33;8.55;;;3.50;;
69981;SDS011;57319;56.274;43.980;2023-02-28T06:37:01;4.15;;;2.92;;
69981;SDS011;57319;56.274;43.980;2023-02-28T06:39:28;6.70;;;3.85;;
69981;SDS011;57319;56.274;43.980;2023-02-28T06:41:54;8.43;;;3.78;;
69981;SDS011;57319;56.274;43.980;2023-02-28T06:44:20;5.85;;;2.97;;
69981;SDS011;57319;56.274;43.980;2023-02-28T06:46:45;3.83;;;3.42;;
69981;SDS011;57319;56.274;43.980;2023-02-28T06:49:12;4.70;;;3.90;;
69981;SDS011;57319;56.274;43.980;2023-02-28T06:51:38;3.70;;;3.38;;
69981;SDS011;57319;56.274;43.980;2023-02-28T06:54:06;6.45;;;3.42;;
69981;SDS011;57319;56.274;43.980;2023-02-28T06:56:35;7.78;;;3.95;;
69981;SDS011;57319;56.274;43.980;2023-02-28T06:59:01;3.83;;;3.53;;
69981;SDS011;57319;56.274;43.980;2023-02-28T07:01:29;9.57;;;3.65;;
69981;SDS011;57319;56.274;43.980;2023-02-28T07:03:58;3.85;;;3.55;;
69981;SDS011;57319;56.274;43.980;2023-02-28T07:06:29;4.97;;;2.25;;
69981;SDS011;57319;56.274;43.980;2023-02-28T07:08:54;6.88;;;3.95;;
69981;SDS011;57319;56.274;43.980;2023-02-28T07:11:21;9.20;;;3.47;;
69981;SDS011;57319;56.274;43.980;2023-02-28T07:13:50;5.50;;;3.95;;
69981;SDS011;57319;56.274;43.980;2023-02-28T07:16:17;5.70;;;2.80;;
69981;SDS011;57319;56.274;43.980;2023-02-28T07:18:43;6.63;;;3.88;;
69981;SDS011;57319;56.274;43.980;2023-02-28T07:21:10;4.13;;;3.60;;
69981;SDS011;57319;56.274;43.980;2023-02-28T07:23:38;6.97;;;4.20;;
69981;SDS011;57319;56.274;43.980;2023-02-28T07:26:04;3.88;;;3.42;;
69981;SDS011;57319;56.274;43.980;2023-02-28T07:28:31;3.28;;;3.05;;
69981;SDS011;57319;56.274;43.980;2023-02-28T07:31:02;5.90;;;3.75;;
69981;SDS011;57319;56.274;43.980;2023-02-28T07:33:29;6.45;;;3.65;;
69981;SDS011;57319;56.274;43.980;2023-02-28T07:35:59;6.40;;;3.65;;
69981;SDS011;57319;56.274;43.980;2023-02-28T07:38:30;5.75;;;3.17;;
69981;SDS011;57319;56.274;43.980;2023-02-28T07:40:56;3.70;;;3.40;;
69981;SDS011;57319;56.274;43.980;2023-02-28T07:43:21;6.78;;;3.95;;
69981;SDS011;57319;56.274;43.980;2023-02-28T07:45:47;5.85;;;3.67;;
69981;SDS011;57319;56.274;43.980;2023-02-28T07:48:12;4.18;;;2.95;;
69981;SDS011;57319;56.274;43.980;2023-02-28T07:50:38;5.53;;;4.22;;
69981;SDS011;57319;56.274;43.980;2023-02-28T07:53:04;11.35;;;3.70;;
69981;SDS011;57319;56.274;43.980;2023-02-28T07:55:29;6.65;;;3.72;;
69981;SDS011;57319;56.274;43.980;2023-02-28T07:57:56;13.07;;;5.15;;
69981;SDS011;57319;56.274;43.980;2023-02-28T08:00:22;3.42;;;3.22;;
69981;SDS011;57319;56.274;43.980;2023-02-28T08:02:48;11.00;;;4.40;;
69981;SDS011;57319;56.274;43.980;2023-02-28T08:05:14;5.50;;;3.63;;
69981;SDS011;57319;56.274;43.980;2023-02-28T08:07:40;6.95;;;4.50;;
69981;SDS011;57319;56.274;43.980;2023-02-28T08:10:06;6.05;;;4.30;;
69981;SDS011;57319;56.274;43.980;2023-02-28T08:12:33;5.13;;;4.47;;
69981;SDS011;57319;56.274;43.980;2023-02-28T08:14:59;7.55;;;4.53;;
69981;SDS011;57319;56.274;43.980;2023-02-28T08:17:25;8.32;;;5.30;;
69981;SDS011;57319;56.274;43.980;2023-02-28T08:19:50;8.13;;;5.20;;
69981;SDS011;57319;56.274;43.980;2023-02-28T08:22:16;7.63;;;5.20;;
69981;SDS011;57319;56.274;43.980;2023-02-28T08:24:41;11.82;;;5.80;;
69981;SDS011;57319;56.274;43.980;2023-02-28T08:27:08;6.28;;;5.13;;
69981;SDS011;57319;56.274;43.980;2023-02-28T08:29:34;6.80;;;4.65;;
69981;SDS011;57319;56.274;43.980;2023-02-28T08:32:02;6.57;;;4.40;;
69981;SDS011;57319;56.274;43.980;2023-02-28T08:34:28;4.38;;;3.97;;
69981;SDS011;57319;56.274;43.980;2023-02-28T08:36:53;3.58;;;3.15;;
69981;SDS011;57319;56.274;43.980;2023-02-28T08:39:19;5.05;;;4.15;;
69981;SDS011;57319;56.274;43.980;2023-02-28T08:41:45;3.83;;;3.47;;
69981;SDS011;57319;56.274;43.980;2023-02-28T08:44:10;4.63;;;3.75;;
69981;SDS011;57319;56.274;43.980;2023-02-28T08:46:36;3.30;;;3.03;;
69981;SDS011;57319;56.274;43.980;2023-02-28T08:49:01;9.13;;;4.00;;
69981;SDS011;57319;56.274;43.980;2023-02-28T08:51:27;6.57;;;3.90;;
69981;SDS011;57319;56.274;43.980;2023-02-28T08:53:54;4.95;;;3.38;;
69981;SDS011;57319;56.274;43.980;2023-02-28T08:56:26;4.82;;;3.42;;
69981;SDS011;57319;56.274;43.980;2023-02-28T08:58:54;4.72;;;3.65;;
69981;SDS011;57319;56.274;43.980;2023-02-28T09:01:22;4.18;;;3.63;;
69981;SDS011;57319;56.274;43.980;2023-02-28T09:03:50;3.70;;;3.42;;
69981;SDS011;57319;56.274;43.980;2023-02-28T09:06:16;4.07;;;3.50;;
69981;SDS011;57319;56.274;43.980;2023-02-28T09:08:43;7.13;;;4.30;;
69981;SDS011;57319;56.274;43.980;2023-02-28T09:11:09;11.95;;;3.92;;
69981;SDS011;57319;56.274;43.980;2023-02-28T09:13:35;5.18;;;4.07;;
69981;SDS011;57319;56.274;43.980;2023-02-28T09:16:02;3.35;;;3.05;;
69981;SDS011;57319;56.274;43.980;2023-02-28T09:18:29;3.65;;;3.35;;
69981;SDS011;57319;56.274;43.980;2023-02-28T09:20:55;4.32;;;3.83;;
69981;SDS011;57319;56.274;43.980;2023-02-28T09:23:23;5.28;;;3.67;;
69981;SDS011;57319;56.274;43.980;2023-02-28T09:25:50;15.27;;;4.55;;
69981;SDS011;57319;56.274;43.980;2023-02-28T09:28:18;5.95;;;3.92;;
69981;SDS011;57319;56.274;43.980;2023-02-28T09:30:45;5.55;;;3.55;;
69981;SDS011;57319;56.274;43.980;2023-02-28T09:33:12;6.20;;;4.55;;
69981;SDS011;57319;56.274;43.980;2023-02-28T09:35:38;7.32;;;3.95;;
69981;SDS011;57319;56.274;43.980;2023-02-28T09:38:04;5.38;;;3.60;;
69981;SDS011;57319;56.274;43.980;2023-02-28T09:40:34;8.20;;;4.22;;
69981;SDS011;57319;56.274;43.980;2023-02-28T09:43:11;4.82;;;3.65;;
69981;SDS011;57319;56.274;43.980;2023-02-28T09:45:40;5.75;;;3.20;;
69981;SDS011;57319;56.274;43.980;2023-02-28T09:48:18;2.95;;;2.75;;
69981;SDS011;57319;56.274;43.980;2023-02-28T09:50:52;6.30;;;4.10;;
69981;SDS011;57319;56.274;43.980;2023-02-28T09:53:28;3.28;;;3.00;;
69981;SDS011;57319;56.274;43.980;2023-02-28T09:56:04;7.57;;;3.78;;
69981;SDS011;57319;56.274;43.980;2023-02-28T09:59:00;7.45;;;3.95;;
69981;SDS011;57319;56.274;43.980;2023-02-28T10:01:39;3.78;;;3.47;;
69981;SDS011;57319;56.274;43.980;2023-02-28T10:07:02;4.30;;;3.70;;
69981;SDS011;57319;56.274;43.980;2023-02-28T10:09:45;6.55;;;3.75;;
69981;SDS011;57319;56.274;43.980;2023-02-28T10:12:16;3.25;;;2.92;;
69981;SDS011;57319;56.274;43.980;2023-02-28T10:14:44;3.58;;;3.28;;
69981;SDS011;57319;56.274;43.980;2023-02-28T10:17:23;4.60;;;4.15;;
69981;SDS011;57319;56.274;43.980;2023-02-28T10:20:04;4.55;;;4.18;;
69981;SDS011;57319;56.274;43.980;2023-02-28T10:22:41;5.18;;;3.60;;
69981;SDS011;57319;56.274;43.980;2023-02-28T10:25:27;8.55;;;4.10;;
69981;SDS011;57319;56.274;43.980;2023-02-28T10:28:15;6.82;;;3.90;;
69981;SDS011;57319;56.274;43.980;2023-02-28T10:30:47;8.25;;;4.55;;
69981;SDS011;57319;56.274;43.980;2023-02-28T10:33:31;6.75;;;4.25;;
69981;SDS011;57319;56.274;43.980;2023-02-28T10:35:59;6.53;;;4.20;;
69981;SDS011;57319;56.274;43.980;2023-02-28T10:38:38;6.93;;;4.07;;
69981;SDS011;57319;56.274;43.980;2023-02-28T10:41:14;10.88;;;4.53;;
69981;SDS011;57319;56.274;43.980;2023-02-28T10:46:45;7.70;;;3.85;;
69981;SDS011;57319;56.274;43.980;2023-02-28T10:49:20;4.05;;;3.70;;
69981;SDS011;57319;56.274;43.980;2023-02-28T10:51:49;4.25;;;3.70;;
69981;SDS011;57319;56.274;43.980;2023-02-28T10:54:20;6.95;;;3.88;;
69981;SDS011;57319;56.274;43.980;2023-02-28T10:59:44;6.15;;;4.03;;
69981;SDS011;57319;56.274;43.980;2023-02-28T11:02:43;10.85;;;4.15;;
69981;SDS011;57319;56.274;43.980;2023-02-28T11:05:24;6.72;;;4.32;;
69981;SDS011;57319;56.274;43.980;2023-02-28T11:08:12;5.90;;;4.10;;
69981;SDS011;57319;56.274;43.980;2023-02-28T11:10:43;6.30;;;4.65;;
69981;SDS011;57319;56.274;43.980;2023-02-28T11:13:17;9.30;;;5.03;;
69981;SDS011;57319;56.274;43.980;2023-02-28T11:15:59;7.85;;;4.88;;
69981;SDS011;57319;56.274;43.980;2023-02-28T11:18:29;5.72;;;4.65;;
69981;SDS011;57319;56.274;43.980;2023-02-28T11:20:59;10.65;;;5.18;;
69981;SDS011;57319;56.274;43.980;2023-02-28T11:23:27;12.25;;;5.05;;
69981;SDS011;57319;56.274;43.980;2023-02-28T11:25:58;7.93;;;5.15;;
69981;SDS011;57319;56.274;43.980;2023-02-28T11:28:30;7.32;;;4.90;;
69981;SDS011;57319;56.274;43.980;2023-02-28T11:39:10;7.63;;;4.25;;
69981;SDS011;57319;56.274;43.980;2023-02-28T11:47:04;7.57;;;5.28;;
69981;SDS011;57319;56.274;43.980;2023-02-28T11:52:36;8.52;;;4.88;;
69981;SDS011;57319;56.274;43.980;2023-02-28T11:58:29;6.65;;;3.95;;
69981;SDS011;57319;56.274;43.980;2023-02-28T12:01:09;3.97;;;3.53;;
69981;SDS011;57319;56.274;43.980;2023-02-28T12:11:48;8.15;;;5.03;;
69981;SDS011;57319;56.274;43.980;2023-02-28T12:27:39;5.05;;;4.53;;
69981;SDS011;57319;56.274;43.980;2023-02-28T12:33:06;7.63;;;4.18;;
69981;SDS011;57319;56.274;43.980;2023-02-28T12:35:36;5.20;;;3.60;;
69981;SDS011;57319;56.274;43.980;2023-02-28T12:38:16;6.72;;;4.05;;
69981;SDS011;57319;56.274;43.980;2023-02-28T12:41:01;4.22;;;3.83;;
69981;SDS011;57319;56.274;43.980;2023-02-28T12:43:43;4.63;;;3.75;;
69981;SDS011;57319;56.274;43.980;2023-02-28T12:46:22;5.82;;;4.22;;
69981;SDS011;57319;56.274;43.980;2023-02-28T12:49:16;10.07;;;3.15;;
69981;SDS011;57319;56.274;43.980;2023-02-28T12:51:46;8.45;;;4.68;;
69981;SDS011;57319;56.274;43.980;2023-02-28T12:56:41;4.20;;;3.83;;
69981;SDS011;57319;56.274;43.980;2023-02-28T12:59:18;3.85;;;3.53;;
69981;SDS011;57319;56.274;43.980;2023-02-28T13:01:59;4.22;;;3.83;;
69981;SDS011;57319;56.274;43.980;2023-02-28T13:10:41;5.40;;;4.20;;
69981;SDS011;57319;56.274;43.980;2023-02-28T13:13:19;6.68;;;4.05;;
69981;SDS011;57319;56.274;43.980;2023-02-28T13:16:07;4.18;;;3.80;;
69981;SDS011;57319;56.274;43.980;2023-02-28T13:21:03;5.57;;;4.10;;
69981;SDS011;57319;56.274;43.980;2023-02-28T13:26:21;5.82;;;3.70;;
69981;SDS011;57319;56.274;43.980;2023-02-28T13:29:00;4.95;;;4.03;;
69981;SDS011;57319;56.274;43.980;2023-02-28T13:31:29;8.43;;;3.92;;
69981;SDS011;57319;56.274;43.980;2023-02-28T13:36:30;7.05;;;4.40;;
69981;SDS011;57319;56.274;43.980;2023-02-28T13:38:58;5.57;;;4.07;;
69981;SDS011;57319;56.274;43.980;2023-02-28T13:51:48;5.50;;;3.83;;
69981;SDS011;57319;56.274;43.980;2023-02-28T13:57:01;7.05;;;4.00;;
69981;SDS011;57319;56.274;43.980;2023-02-28T14:05:06;3.67;;;3.33;;
69981;SDS011;57319;56.274;43.980;2023-02-28T14:07:38;5.70;;;4.43;;
69981;SDS011;57319;56.274;43.980;2023-02-28T14:13:00;4.95;;;3.88;;
69981;SDS011;57319;56.274;43.980;2023-02-28T14:17:59;5.43;;;3.95;;
69981;SDS011;57319;56.274;43.980;2023-02-28T14:20:29;4.82;;;4.13;;
69981;SDS011;57319;56.274;43.980;2023-02-28T14:23:10;7.00;;;4.18;;
69981;SDS011;57319;56.274;43.980;2023-02-28T14:31:13;9.88;;;3.85;;
69981;SDS011;57319;56.274;43.980;2023-02-28T14:36:26;7.70;;;4.63;;
69981;SDS011;57319;56.274;43.980;2023-02-28T14:39:01;7.65;;;4.47;;
69981;SDS011;57319;56.274;43.980;2023-02-28T14:41:39;8.32;;;4.43;;
69981;SDS011;57319;56.274;43.980;2023-02-28T14:46:41;3.75;;;3.45;;
69981;SDS011;57319;56.274;43.980;2023-02-28T14:49:21;5.68;;;4.38;;
69981;SDS011;57319;56.274;43.980;2023-02-28T14:52:27;5.93;;;4.55;;
69981;SDS011;57319;56.274;43.980;2023-02-28T14:54:55;5.88;;;4.78;;
69981;SDS011;57319;56.274;43.980;2023-02-28T14:57:29;5.05;;;4.63;;
69981;SDS011;57319;56.274;43.980;2023-02-28T15:02:53;12.27;;;4.70;;
69981;SDS011;57319;56.274;43.980;2023-02-28T15:05:22;6.55;;;3.95;;
69981;SDS011;57319;56.274;43.980;2023-02-28T15:08:15;6.50;;;4.68;;
69981;SDS011;57319;56.274;43.980;2023-02-28T15:10:44;4.45;;;3.85;;
69981;SDS011;57319;56.274;43.980;2023-02-28T15:13:15;6.68;;;4.68;;
69981;SDS011;57319;56.274;43.980;2023-02-28T15:15:58;7.10;;;4.90;;
69981;SDS011;57319;56.274;43.980;2023-02-28T15:21:30;7.22;;;4.82;;
69981;SDS011;57319;56.274;43.980;2023-02-28T15:26:25;8.65;;;4.80;;
69981;SDS011;57319;56.274;43.980;2023-02-28T15:29:04;10.23;;;5.28;;
69981;SDS011;57319;56.274;43.980;2023-02-28T15:31:33;6.22;;;4.60;;
69981;SDS011;57319;56.274;43.980;2023-02-28T15:34:03;9.27;;;5.40;;
69981;SDS011;57319;56.274;43.980;2023-02-28T15:36:33;11.20;;;6.60;;
69981;SDS011;57319;56.274;43.980;2023-02-28T15:39:02;11.30;;;5.85;;
69981;SDS011;57319;56.274;43.980;2023-02-28T15:41:43;9.52;;;6.25;;
69981;SDS011;57319;56.274;43.980;2023-02-28T15:44:26;8.00;;;5.53;;
69981;SDS011;57319;56.274;43.980;2023-02-28T15:47:04;11.32;;;5.88;;
69981;SDS011;57319;56.274;43.980;2023-02-28T15:49:49;12.63;;;5.63;;
69981;SDS011;57319;56.274;43.980;2023-02-28T15:52:16;9.75;;;6.00;;
69981;SDS011;57319;56.274;43.980;2023-02-28T15:54:45;9.70;;;5.65;;
69981;SDS011;57319;56.274;43.980;2023-02-28T15:57:16;6.40;;;4.95;;
69981;SDS011;57319;56.274;43.980;2023-02-28T15:59:52;7.95;;;5.22;;
69981;SDS011;57319;56.274;43.980;2023-02-28T16:02:22;8.25;;;5.70;;
69981;SDS011;57319;56.274;43.980;2023-02-28T16:05:00;7.85;;;5.25;;
69981;SDS011;57319;56.274;43.980;2023-02-28T16:07:36;10.82;;;6.18;;
69981;SDS011;57319;56.274;43.980;2023-02-28T16:10:04;7.63;;;5.30;;
69981;SDS011;57319;56.274;43.980;2023-02-28T16:12:31;9.43;;;5.57;;
69981;SDS011;57319;56.274;43.980;2023-02-28T16:14:59;9.18;;;5.82;;
69981;SDS011;57319;56.274;43.980;2023-02-28T16:17:30;7.80;;;5.13;;
69981;SDS011;57319;56.274;43.980;2023-02-28T16:19:59;11.00;;;5.72;;
69981;SDS011;57319;56.274;43.980;2023-02-28T16:22:25;7.40;;;4.80;;
69981;SDS011;57319;56.274;43.980;2023-02-28T16:24:51;9.75;;;5.30;;
69981;SDS011;57319;56.274;43.980;2023-02-28T16:27:19;8.93;;;6.22;;
69981;SDS011;57319;56.274;43.980;2023-02-28T16:29:49;11.48;;;7.07;;
69981;SDS011;57319;56.274;43.980;2023-02-28T16:32:15;10.30;;;5.72;;
69981;SDS011;57319;56.274;43.980;2023-02-28T16:34:42;11.23;;;6.20;;
69981;SDS011;57319;56.274;43.980;2023-02-28T16:37:17;9.60;;;5.97;;
69981;SDS011;57319;56.274;43.980;2023-02-28T16:39:44;9.27;;;5.32;;
69981;SDS011;57319;56.274;43.980;2023-02-28T16:42:11;12.98;;;6.78;;
69981;SDS011;57319;56.274;43.980;2023-02-28T16:44:45;11.48;;;6.15;;
69981;SDS011;57319;56.274;43.980;2023-02-28T16:47:11;6.32;;;4.57;;
69981;SDS011;57319;56.274;43.980;2023-02-28T16:49:37;8.38;;;5.47;;
69981;SDS011;57319;56.274;43.980;2023-02-28T16:52:03;7.97;;;6.30;;
69981;SDS011;57319;56.274;43.980;2023-02-28T16:54:29;8.43;;;5.50;;
69981;SDS011;57319;56.274;43.980;2023-02-28T16:56:55;13.27;;;6.68;;
69981;SDS011;57319;56.274;43.980;2023-02-28T16:59:23;17.38;;;6.70;;
69981;SDS011;57319;56.274;43.980;2023-02-28T17:01:51;11.20;;;6.10;;
69981;SDS011;57319;56.274;43.980;2023-02-28T17:04:17;12.43;;;6.50;;
69981;SDS011;57319;56.274;43.980;2023-02-28T17:06:43;9.88;;;5.72;;
69981;SDS011;57319;56.274;43.980;2023-02-28T17:09:19;6.90;;;5.15;;
69981;SDS011;57319;56.274;43.980;2023-02-28T17:11:46;8.23;;;5.38;;
69981;SDS011;57319;56.274;43.980;2023-02-28T17:14:12;7.82;;;5.78;;
69981;SDS011;57319;56.274;43.980;2023-02-28T17:16:38;12.27;;;6.85;;
69981;SDS011;57319;56.274;43.980;2023-02-28T17:19:14;13.70;;;5.95;;
69981;SDS011;57319;56.274;43.980;2023-02-28T17:21:41;16.98;;;6.28;;
69981;SDS011;57319;56.274;43.980;2023-02-28T17:24:07;8.75;;;6.25;;
69981;SDS011;57319;56.274;43.980;2023-02-28T17:26:34;9.70;;;5.78;;
69981;SDS011;57319;56.274;43.980;2023-02-28T17:29:00;11.77;;;6.65;;
69981;SDS011;57319;56.274;43.980;2023-02-28T17:31:26;12.65;;;6.95;;
69981;SDS011;57319;56.274;43.980;2023-02-28T17:33:53;9.45;;;6.18;;